• Join FlightAware (Why Join?)
  • Login
  • US Flag 
03:06PM EDT


 

Airport Tracker/Info


-or-


 

Live Flight TrackerFlight Track Log ✈ UCA3597 ✈ 10-Dec-2013 ✈ KBGM - KIAD

Flight Track Log - Related Links

Times and Time Zones

All times are in EST time to prevent confusion due to time zone crossing. See the UCA3597 flight status page for this flight to view local times or setup timezone preferences in your user account.

Time Position Orientation Groundspeed Altitude Reporting Facility
EST Latitude Longitude Course Direction KTS MPH feet Rate Location/Type
07:23PM 42.2325 -76.0556 205° Southwest 130 150 4,800  Level New York Center
07:24PM 42.1897 -76.0831 205° Southwest 106 122 6,400 1,620 Climbing New York Center
07:25PM 42.1506 -76.1189 214° Southwest 153 176 8,100 1,560 Climbing New York Center
07:26PM 42.1075 -76.1517 209° Southwest 171 197 9,600 1,500 Climbing New York Center
07:27PM 42.0642 -76.1875 212° Southwest 176 203 11,200 1,560 Climbing New York Center
07:28PM 42.0231 -76.2203 211° Southwest 176 203 12,800 1,560 Climbing New York Center
07:29PM 41.9819 -76.2561 213° Southwest 176 203 14,400 1,440 Climbing New York Center
07:30PM 41.9494 -76.2839 212° Southwest 171 197 15,700 780 Climbing New York Center
07:31PM 41.9064 -76.3167 210° Southwest 177 204 16,000 120 Climbing New York Center
07:32PM 41.8500 -76.3619 211° Southwest 206 237 16,000  Level New York Center
07:33PM 41.8022 -76.4053 214° Southwest 214 246 16,000  Level New York Center
07:34PM 41.7506 -76.4428 208° Southwest 219 252 16,000  Level New York Center
07:35PM 41.7028 -76.4803 210° Southwest 214 246 16,000  Level New York Center
07:36PM 41.6464 -76.5256 211° Southwest 214 246 16,000  Level New York Center
07:37PM 41.5944 -76.5681 211° Southwest 219 252 16,000  Level New York Center
07:38PM 41.5444 -76.6081 211° Southwest 219 252 16,000  Level New York Center
07:39PM 41.4989 -76.6458 212° Southwest 214 246 16,000  Level New York Center
07:40PM 41.4469 -76.6856 210° Southwest 220 253 16,000  Level New York Center
07:41PM 41.3947 -76.7308 213° Southwest 220 253 16,000  Level New York Center
07:42PM 41.3425 -76.7731 211° Southwest 220 253 16,000  Level New York Center
07:43PM 41.2772 -76.7894 191° South 220 253 16,000  Level New York Center
07:44PM 41.2078 -76.8025 188° South 239 275 16,000  Level New York Center
07:45PM 41.1383 -76.8156 188° South 256 295 16,000  Level New York Center
07:46PM 41.0711 -76.8289 189° South 256 295 16,000  Level New York Center
07:47PM 41.0014 -76.8447 190° South 256 295 16,000  Level New York Center
07:48PM 40.9281 -76.8547 186° South 261 300 16,000  Level New York Center
07:49PM 40.8500 -76.8722 190° South 261 300 16,000  Level New York Center
07:50PM 40.7806 -76.8853 188° South 266 306 16,000  Level New York Center
07:51PM 40.7061 -76.9117 195° South 259 298 16,000  Level New York Center
07:52PM 40.6428 -76.9306 193° South 259 298 16,000  Level New York Center
07:53PM 40.5706 -76.9542 194° South 253 291 16,000  Level New York Center
07:54PM 40.5092 -76.9731 193° South 253 291 16,000  Level New York Center
07:55PM 40.4350 -76.9939 192° South 253 291 16,000 -300 Level New York Center
07:56PM 40.3736 -77.0156 195° South 248 285 15,500 -660 Descending New York Center
07:57PM 40.2911 -77.0381 192° South 266 306 14,700 -900 Descending New York Center
07:58PM 40.2253 -77.0592 194° South 266 306 13,800 -1,080 Descending New York Center
08:01PM 40.0333 -77.1167 193° South 273 314 11,100 -1,140 Descending Potomac TRACON
08:02PM 39.9667 -77.1333 191° South 267 307 10,000 -960 Descending Potomac TRACON
08:03PM 39.8833 -77.1667 197° South 261 300 9,100 -600 Descending Potomac TRACON
08:04PM 39.8333 -77.1833 194° South 247 284 8,800 -540 Descending Potomac TRACON
08:05PM 39.7667 -77.2333 210° Southwest 244 281 8,100 -720 Descending Potomac TRACON
08:06PM 39.7000 -77.2667 201° Southwest 257 296 7,400 -480 Descending Potomac TRACON
08:07PM 39.6167 -77.2833 189° South 258 297 7,100 -180 Descending Potomac TRACON
08:08PM 39.5667 -77.3167 207° Southwest 260 299 7,100  Level Potomac TRACON
08:09PM 39.5000 -77.3333 191° South 253 291 7,100  Level Potomac TRACON
08:10PM 39.4333 -77.3500 191° South 255 293 7,100 -480 Level Potomac TRACON
08:11PM 39.3333 -77.3667 187° South 275 316 6,100 -960 Descending Potomac TRACON
08:12PM 39.2667 -77.3667 180° South 257 296 5,100 -540 Descending Potomac TRACON
08:13PM 39.2000 -77.3667 180° South 252 290 5,100 -480 Level Potomac TRACON
08:14PM 39.1333 -77.3667 180° South 225 259 4,300 -1,080 Descending Potomac TRACON
08:15PM 39.0833 -77.3667 180° South 229 264 3,100 -600 Descending Potomac TRACON
08:16PM 39.0167 -77.3500 169° South 224 258 3,100  Level Potomac TRACON
08:17PM 38.9667 -77.3500 180° South 196 226 3,100  Level Potomac TRACON
08:18PM 38.9167 -77.3500 180° South 198 228 3,100 -480 Level Potomac TRACON
08:19PM 38.8667 -77.3667 195° South 190 219 2,300 -660 Descending Potomac TRACON
08:20PM 38.8667 -77.4167 270° West 129 148 1,800 -660 Descending Potomac TRACON
08:21PM 38.9000 -77.4333 339° North 118 136 1,000 -840 Descending Potomac TRACON